Time;durP1;ratioP1;P1;durP2;ratioP2;P2;SDS_P1;SDS_P2;PMS_P1;PMS_P2;Temp;Humidity;BMP_temperature;BMP_pressure;BME280_temperature;BME280_humidity;BME280_pressure;Samples;Min_cycle;Max_cycle;Signal;HPM_P1;HPM_P2
2022/07/11 00:00:15;;;;;;;2.60;2.15;;;;;;;19.07;62.46;100824.91;10356838;28;20047;-70
2022/07/11 00:05:17;;;;;;;2.45;2.05;;;;;;;19.11;62.58;100828.13;10354169;28;20080;-69
2022/07/11 00:10:18;;;;;;;4.10;2.10;;;;;;;19.08;62.37;100821.22;10352857;28;20073;-69
2022/07/11 00:15:19;;;;;;;2.67;2.13;;;;;;;19.17;62.15;100826.59;10356220;28;20085;-69
2022/07/11 00:20:21;;;;;;;2.90;1.95;;;;;;;19.14;61.85;100819.72;10346121;28;20924;-68
2022/07/11 00:25:22;;;;;;;2.72;2.15;;;;;;;19.15;61.43;100815.16;10346267;28;20121;-70
2022/07/11 00:30:24;;;;;;;3.30;1.98;;;;;;;19.05;62.66;100820.69;10348722;28;20751;-69
2022/07/11 00:35:25;;;;;;;3.55;2.00;;;;;;;19.11;62.48;100809.25;10351607;28;20099;-69
2022/07/11 00:40:26;;;;;;;3.63;1.90;;;;;;;19.19;62.34;100811.13;10344269;28;20137;-69
2022/07/11 00:45:28;;;;;;;1.85;1.70;;;;;;;19.19;62.19;100806.56;10350076;28;20346;-70
2022/07/11 00:50:30;;;;;;;2.33;1.58;;;;;;;19.21;62.32;100803.69;10356592;28;20124;-68
2022/07/11 00:55:31;;;;;;;2.20;1.48;;;;;;;19.21;62.33;100800.97;10349345;28;20104;-70
2022/07/11 01:00:33;;;;;;;2.85;1.50;;;;;;;19.23;62.23;100802.53;10342691;28;20077;-70
2022/07/11 01:05:34;;;;;;;2.20;1.55;;;;;;;19.16;62.58;100795.25;10348555;28;20054;-70
2022/07/11 01:10:36;;;;;;;3.20;2.35;;;;;;;19.21;62.22;100798.28;10350671;28;20109;-69
2022/07/11 01:15:38;;;;;;;3.13;1.55;;;;;;;19.21;61.89;100798.28;10349468;28;20220;-69
2022/07/11 01:20:39;;;;;;;1.70;1.42;;;;;;;19.18;61.77;100777.03;10342137;28;20065;-69
2022/07/11 01:25:40;;;;;;;3.00;2.10;;;;;;;19.24;62.32;100787.16;10351982;28;20137;-69
2022/07/11 01:30:42;;;;;;;2.15;1.52;;;;;;;19.26;62.16;100774.38;10348959;28;20815;-69
2022/07/11 01:35:43;;;;;;;2.95;1.65;;;;;;;19.26;61.93;100774.38;10349143;28;20049;-69
2022/07/11 01:40:45;;;;;;;4.32;1.65;;;;;;;19.27;61.93;100769.78;10344437;28;20061;-68
2022/07/11 01:45:50;;;;;;;3.55;1.92;;;;;;;19.16;62.14;100763.72;10350771;28;20081;-68
2022/07/11 01:50:52;;;;;;;2.60;1.85;;;;;;;19.04;62.43;100771.28;10351426;28;20136;-68
2022/07/11 01:55:53;;;;;;;2.35;2.15;;;;;;;18.99;62.95;100773.66;10348405;28;20065;-69
2022/07/11 02:01:16;;;;;;;3.08;2.78;;;;;;;18.99;62.83;100773.66;10340454;28;20049;-69
2022/07/11 02:06:17;;;;;;;3.83;2.30;;;;;;;18.96;63.00;100773.97;10346865;28;20064;-69
2022/07/11 02:11:19;;;;;;;3.90;2.45;;;;;;;18.96;63.05;100770.41;10349745;28;20138;-69
2022/07/11 02:16:21;;;;;;;4.68;3.03;;;;;;;18.92;63.23;100767.22;10348956;28;20081;-68
2022/07/11 02:21:24;;;;;;;2.97;2.10;;;;;;;18.93;62.62;100758.13;10342571;28;20045;-69
2022/07/11 02:26:25;;;;;;;2.45;2.10;;;;;;;18.94;63.11;100758.97;10360758;28;20041;-69
2022/07/11 02:31:27;;;;;;;4.95;2.60;;;;;;;18.95;62.87;100755.25;10377127;28;20048;-69
2022/07/11 02:36:29;;;;;;;2.50;2.30;;;;;;;18.90;62.91;100758.47;10373491;28;20050;-69
2022/07/11 02:41:30;;;;;;;3.13;2.60;;;;;;;18.89;63.17;100757.59;10363209;28;20054;-69
2022/07/11 02:46:32;;;;;;;3.88;1.92;;;;;;;18.86;63.52;100749.00;10379866;28;20139;-70
2022/07/11 02:51:33;;;;;;;3.83;2.17;;;;;;;18.89;63.59;100751.38;10363380;28;20046;-69
2022/07/11 02:56:34;;;;;;;4.15;2.85;;;;;;;18.90;63.20;100747.69;10350280;28;20160;-70
2022/07/11 03:01:36;;;;;;;2.33;1.92;;;;;;;18.95;63.72;100753.41;10346815;28;20790;-69
2022/07/11 03:06:38;;;;;;;2.50;2.30;;;;;;;18.90;63.82;100743.13;10337734;28;20064;-70
2022/07/11 03:11:39;;;;;;;3.67;2.35;;;;;;;18.97;63.19;100742.44;10335149;28;20065;-69
2022/07/11 03:16:41;;;;;;;4.45;2.83;;;;;;;18.98;63.32;100749.53;10346540;28;20191;-71
2022/07/11 03:21:42;;;;;;;4.60;2.13;;;;;;;19.02;63.56;100757.13;10352529;28;20160;-69
2022/07/11 03:26:44;;;;;;;3.28;2.38;;;;;;;19.04;63.48;100757.78;10346248;28;20057;-70
2022/07/11 03:31:45;;;;;;;5.38;2.20;;;;;;;19.02;63.58;100756.25;10341354;28;20104;-68
2022/07/11 03:36:47;;;;;;;4.65;2.70;;;;;;;19.02;63.69;100745.47;10336990;28;20064;-68
2022/07/11 03:41:48;;;;;;;3.10;2.88;;;;;;;18.90;63.56;100745.81;10342755;28;20700;-69
2022/07/11 03:46:50;;;;;;;4.20;2.72;;;;;;;18.71;64.16;100738.81;10328690;28;20140;-70
2022/07/11 03:51:52;;;;;;;3.00;2.65;;;;;;;18.80;64.39;100741.56;10342813;28;20238;-68
2022/07/11 03:56:53;;;;;;;3.08;2.40;;;;;;;18.82;63.63;100751.13;10337126;28;20049;-68
2022/07/11 04:01:55;;;;;;;3.63;2.60;;;;;;;18.73;64.54;100746.75;10337400;28;20695;-68
2022/07/11 04:06:56;;;;;;;3.10;2.60;;;;;;;18.68;64.27;100741.84;10342920;28;20071;-70
2022/07/11 04:11:58;;;;;;;7.30;3.45;;;;;;;18.66;64.17;100735.78;10340774;28;20765;-69
2022/07/11 04:16:59;;;;;;;4.05;3.08;;;;;;;18.77;64.43;100749.97;10339826;28;20144;-69
2022/07/11 04:22:01;;;;;;;2.83;2.50;;;;;;;18.74;64.69;100737.66;10331913;28;20049;-70
2022/07/11 04:27:02;;;;;;;3.78;3.30;;;;;;;18.81;64.57;100748.63;10346323;28;20180;-70
2022/07/11 04:32:05;;;;;;;4.53;3.03;;;;;;;18.85;64.08;100745.44;10347360;28;20129;-68
2022/07/11 04:37:07;;;;;;;3.08;2.78;;;;;;;18.89;64.35;100740.59;10355638;28;20060;-69
2022/07/11 04:42:09;;;;;;;4.15;2.67;;;;;;;18.89;64.57;100749.50;10349918;28;20057;-68
2022/07/11 04:47:10;;;;;;;3.80;3.13;;;;;;;18.95;64.23;100745.31;10349764;28;20673;-69
2022/07/11 04:52:12;;;;;;;3.47;3.17;;;;;;;18.96;64.12;100752.41;10348438;28;20228;-69
2022/07/11 04:57:14;;;;;;;3.30;2.38;;;;;;;18.99;63.59;100752.06;10343150;28;20186;-71
2022/07/11 05:02:17;;;;;;;3.50;2.67;;;;;;;18.98;63.46;100750.38;10333793;28;20072;-71
2022/07/11 05:07:19;;;;;;;3.38;2.83;;;;;;;19.01;64.63;100752.72;10343344;28;20568;-70
2022/07/11 05:12:20;;;;;;;4.38;3.22;;;;;;;19.12;63.46;100766.91;10345322;28;20054;-71
2022/07/11 05:17:23;;;;;;;6.07;3.15;;;;;;;19.15;63.65;100774.66;10343763;28;20053;-70
2022/07/11 05:22:24;;;;;;;6.00;3.00;;;;;;;19.18;63.78;100772.47;10347338;28;20819;-69
2022/07/11 05:27:26;;;;;;;5.45;3.00;;;;;;;19.31;63.66;100781.94;10333489;28;20153;-71
2022/07/11 05:32:27;;;;;;;4.40;2.55;;;;;;;19.39;63.70;100784.63;10338856;28;20080;-70
2022/07/11 05:37:36;;;;;;;4.90;2.40;;;;;;;19.38;63.60;100773.00;10350926;28;20056;-71
2022/07/11 05:42:38;;;;;;;5.65;3.00;;;;;;;19.54;63.73;100792.91;10370502;28;20077;-72
2022/07/11 05:47:39;;;;;;;3.63;2.22;;;;;;;19.58;62.56;100796.97;10350656;28;20136;-72
2022/07/11 05:52:41;;;;;;;3.30;2.65;;;;;;;19.61;62.99;100793.91;10353754;28;21667;-71
2022/07/11 05:57:42;;;;;;;6.55;2.80;;;;;;;19.66;62.70;100794.25;10349825;28;20061;-70
2022/07/11 06:02:44;;;;;;;4.03;2.38;;;;;;;19.69;61.84;100791.19;10344032;28;20448;-71
2022/07/11 06:13:06;;;;;;;3.88;2.83;;;;;;;19.82;61.55;100800.69;10346729;28;20168;-69
2022/07/11 06:18:08;;;;;;;3.83;2.05;;;;;;;19.85;61.63;100789.53;10337962;28;20072;-69
2022/07/11 06:23:10;;;;;;;4.45;2.63;;;;;;;19.87;61.45;100784.81;10337236;28;20559;-70
2022/07/11 06:28:11;;;;;;;5.15;3.08;;;;;;;19.84;61.28;100787.84;10337520;28;20057;-70
2022/07/11 06:33:15;;;;;;;4.40;2.92;;;;;;;19.80;60.73;100792.72;10332841;28;20099;-69
2022/07/11 06:38:17;;;;;;;4.03;2.25;;;;;;;19.82;61.93;100790.72;10329817;28;20459;-68
2022/07/11 06:43:18;;;;;;;6.60;2.70;;;;;;;19.93;61.40;100795.75;10334605;28;20127;-68
2022/07/11 06:48:21;;;;;;;2.25;1.92;;;;;;;20.06;61.10;100773.63;10343513;28;20551;-69
2022/07/11 06:53:22;;;;;;;2.70;2.25;;;;;;;20.34;59.61;100797.50;10325700;28;20802;-69
2022/07/11 06:58:33;;;;;;;1.98;1.73;;;;;;;20.39;60.07;100792.44;10338814;28;20052;-69
2022/07/11 07:03:35;;;;;;;1.67;1.58;;;;;;;20.51;58.52;100794.75;10323113;28;20787;-69
2022/07/11 07:08:36;;;;;;;2.42;1.65;;;;;;;20.61;58.49;100790.81;10333144;28;20215;-70
2022/07/11 07:13:38;;;;;;;3.20;1.92;;;;;;;20.81;57.12;100780.44;10343775;28;20054;-69
2022/07/11 07:18:42;;;;;;;2.50;2.03;;;;;;;20.98;56.61;100791.16;10339042;28;20140;-69
2022/07/11 07:23:44;;;;;;;2.15;1.40;;;;;;;21.15;56.75;100797.28;10341812;28;20440;-69
2022/07/11 07:28:46;;;;;;;2.13;1.45;;;;;;;21.24;55.75;100800.78;10333543;28;20152;-70
2022/07/11 07:33:48;;;;;;;1.73;1.55;;;;;;;21.32;55.32;100793.44;10345177;28;20057;-69
2022/07/11 07:38:49;;;;;;;2.33;1.60;;;;;;;21.45;55.50;100798.28;10340783;28;20187;-69
2022/07/11 07:43:51;;;;;;;1.85;1.67;;;;;;;21.37;54.84;100791.03;10326191;28;20108;-71
2022/07/11 07:48:52;;;;;;;2.00;1.58;;;;;;;21.47;54.83;100801.63;10324945;28;20058;-72
2022/07/11 07:53:54;;;;;;;6.72;2.13;;;;;;;21.72;54.59;100787.88;10322060;28;20127;-71
2022/07/11 07:58:57;;;;;;;4.97;1.90;;;;;;;21.79;54.00;100791.56;10335130;28;20060;-71
2022/07/11 08:04:00;;;;;;;1.65;1.55;;;;;;;21.66;53.96;100794.03;10313303;28;20350;-69
2022/07/11 08:09:03;;;;;;;2.63;1.42;;;;;;;21.53;54.21;100787.38;10329155;28;20064;-70
2022/07/11 08:14:07;;;;;;;3.70;1.85;;;;;;;21.46;54.52;100786.41;10349039;28;21087;-71
2022/07/11 08:19:11;;;;;;;2.38;1.25;;;;;;;21.41;55.15;100791.53;10348235;28;20131;-69
2022/07/11 08:24:12;;;;;;;1.30;1.00;;;;;;;21.45;53.33;100797.41;10352074;28;20059;-73
2022/07/11 08:29:13;;;;;;;2.05;1.13;;;;;;;21.41;53.09;100796.94;10351443;28;20897;-69
2022/07/11 08:34:15;;;;;;;1.23;1.08;;;;;;;21.43;53.80;100797.59;10341185;28;20691;-70
2022/07/11 08:39:17;;;;;;;2.10;1.00;;;;;;;21.63;53.75;100799.81;10344520;28;20053;-70
2022/07/11 08:44:19;;;;;;;3.05;1.05;;;;;;;22.03;52.07;100793.16;10349273;28;20064;-69
2022/07/11 08:49:21;;;;;;;2.65;1.90;;;;;;;22.41;51.60;100797.69;10331660;28;20044;-70
2022/07/11 08:54:23;;;;;;;1.10;0.80;;;;;;;22.20;51.69;100796.56;10346761;28;20071;-69
2022/07/11 08:59:27;;;;;;;2.40;1.77;;;;;;;22.28;52.37;100794.75;10318651;28;20049;-69
2022/07/11 09:04:30;;;;;;;1.83;1.23;;;;;;;22.15;51.95;100788.13;10335352;28;20049;-68
2022/07/11 09:09:31;;;;;;;2.53;1.38;;;;;;;22.16;52.18;100792.53;10345450;28;24359;-70
2022/07/11 09:14:33;;;;;;;2.20;1.40;;;;;;;22.21;52.29;100783.84;10337509;28;21085;-70
2022/07/11 09:19:39;;;;;;;1.65;1.35;;;;;;;22.05;51.76;100799.25;10327627;28;20084;-70
2022/07/11 09:30:16;;;;;;;2.03;1.45;;;;;;;21.72;53.63;100796.00;10330012;28;20053;-69
2022/07/11 09:35:18;;;;;;;2.05;1.30;;;;;;;21.51;53.04;100781.31;10339104;28;20046;-69
2022/07/11 09:40:21;;;;;;;3.17;1.88;;;;;;;21.46;53.13;100775.56;10346005;28;20168;-70
2022/07/11 09:45:26;;;;;;;1.90;1.80;;;;;;;21.69;53.85;100786.41;10352639;28;20049;-74
2022/07/11 09:50:29;;;;;;;1.90;1.40;;;;;;;21.83;53.07;100779.31;10343449;28;20053;-71
2022/07/11 09:55:40;;;;;;;1.80;1.70;;;;;;;22.17;52.60;100791.50;10350344;28;20053;-72
2022/07/11 10:00:53;;;;;;;2.53;1.90;;;;;;;22.67;51.17;100782.78;10331206;28;20167;-71
2022/07/11 10:05:55;;;;;;;1.95;1.85;;;;;;;23.20;49.98;100769.81;10340647;28;20211;-73
2022/07/11 10:10:56;;;;;;;3.05;1.73;;;;;;;23.54;48.37;100770.97;10346044;28;20074;-71
2022/07/11 10:16:00;;;;;;;2.30;1.63;;;;;;;23.80;48.87;100764.88;10322506;28;20058;-71
2022/07/11 10:21:11;;;;;;;2.10;1.80;;;;;;;23.92;47.01;100773.34;10338715;28;20454;-71
2022/07/11 10:26:31;;;;;;;1.83;1.50;;;;;;;23.96;47.67;100785.53;10345479;28;20095;-70
2022/07/11 10:31:33;;;;;;;1.85;1.40;;;;;;;23.97;46.89;100770.03;10345890;28;20211;-73
2022/07/11 10:37:00;;;;;;;1.38;1.27;;;;;;;23.83;47.44;100774.53;10343298;28;20048;-72
2022/07/11 10:42:04;;;;;;;2.95;1.40;;;;;;;24.21;46.33;100781.47;10343876;28;20111;-70
2022/07/11 10:47:42;;;;;;;2.22;1.25;;;;;;;24.65;45.76;100772.94;10338829;28;20139;-70
2022/07/11 10:52:59;;;;;;;3.03;1.90;;;;;;;24.81;45.50;100773.59;10336440;28;20053;-69
2022/07/11 10:58:22;;;;;;;2.75;1.70;;;;;;;24.27;45.71;100770.63;10335070;28;20125;-70
2022/07/11 11:03:24;;;;;;;4.93;2.05;;;;;;;23.87;47.05;100773.13;10338893;28;20057;-69
2022/07/11 11:08:31;;;;;;;2.58;2.05;;;;;;;23.75;47.54;100774.66;10343055;28;20065;-71
2022/07/11 11:13:35;;;;;;;2.13;1.45;;;;;;;23.98;46.74;100778.00;10345998;28;21816;-71
2022/07/11 11:18:41;;;;;;;1.95;1.30;;;;;;;24.26;45.46;100768.97;10343883;28;20068;-69
2022/07/11 11:24:05;;;;;;;2.05;1.30;;;;;;;24.48;46.23;100760.69;10345757;28;20053;-70
2022/07/11 11:29:07;;;;;;;1.42;1.17;;;;;;;25.38;44.12;100760.53;10340284;28;20049;-71
2022/07/11 11:34:09;;;;;;;2.80;1.35;;;;;;;25.58;43.32;100744.16;10331563;28;20185;-70
2022/07/11 11:39:21;;;;;;;2.17;1.37;;;;;;;25.70;43.09;100752.53;10320388;28;20140;-69
2022/07/11 11:44:22;;;;;;;2.75;1.33;;;;;;;25.06;44.12;100771.97;10335177;28;20337;-69
2022/07/11 11:49:24;;;;;;;3.83;2.00;;;;;;;24.60;44.20;100767.25;10356220;28;20132;-69
2022/07/11 11:54:25;;;;;;;1.63;1.10;;;;;;;24.54;45.01;100776.19;10345722;28;20086;-69
2022/07/11 11:59:31;;;;;;;1.00;0.70;;;;;;;24.77;43.82;100777.78;10346175;28;20559;-70
2022/07/11 12:04:36;;;;;;;2.20;0.88;;;;;;;24.92;44.18;100770.28;10359243;28;20057;-69
2022/07/11 12:09:46;;;;;;;1.23;0.82;;;;;;;24.68;44.43;100766.22;10360796;28;20132;-70
2022/07/11 12:14:47;;;;;;;2.25;1.00;;;;;;;24.23;45.36;100782.97;10357622;28;20133;-72
2022/07/11 12:19:49;;;;;;;1.52;0.93;;;;;;;24.01;45.94;100763.16;10359811;28;20064;-70
2022/07/11 12:24:51;;;;;;;1.38;1.13;;;;;;;24.14;46.33;100767.84;10339368;28;20136;-69
2022/07/11 12:29:53;;;;;;;1.70;0.95;;;;;;;24.63;45.87;100764.13;10364736;28;20056;-69
2022/07/11 12:34:55;;;;;;;3.50;1.00;;;;;;;25.38;43.50;100755.91;10352435;28;20054;-69
2022/07/11 12:40:04;;;;;;;1.45;0.82;;;;;;;25.62;43.01;100736.41;10339516;28;20474;-68
2022/07/11 12:45:13;;;;;;;0.98;0.80;;;;;;;25.44;43.21;100746.06;10329602;28;20667;-70
2022/07/11 12:50:26;;;;;;;1.48;0.55;;;;;;;25.21;42.68;100746.47;10333357;28;20567;-69
2022/07/11 12:55:34;;;;;;;;;;;;;;;25.11;43.47;100752.28;10351469;28;20048;-69
2022/07/11 13:00:38;;;;;;;2.85;1.13;;;;;;;25.12;43.55;100745.81;10349585;28;19963;-71
2022/07/11 13:05:50;;;;;;;1.30;1.20;;;;;;;25.49;43.29;100751.75;10342098;28;20116;-70
2022/07/11 13:10:52;;;;;;;3.30;2.27;;;;;;;25.88;42.18;100740.97;10339921;28;20183;-70
2022/07/11 13:16:07;;;;;;;1.75;1.02;;;;;;;25.98;42.08;100737.81;10328756;28;20218;-70
2022/07/11 13:21:09;;;;;;;1.65;0.88;;;;;;;26.04;41.96;100732.38;10345072;28;20816;-71
2022/07/11 13:26:11;;;;;;;0.80;0.80;;;;;;;26.31;41.00;100732.28;10350123;28;20110;-72
2022/07/11 13:31:13;;;;;;;1.88;0.63;;;;;;;26.52;41.61;100733.03;10343142;28;20049;-70
2022/07/11 13:36:17;;;;;;;0.95;0.70;;;;;;;26.61;40.52;100726.25;10331236;28;20064;-70
2022/07/11 13:41:18;;;;;;;1.70;1.10;;;;;;;26.59;40.69;100723.75;10336829;28;20739;-72
2022/07/11 13:46:20;;;;;;;0.75;0.73;;;;;;;26.49;40.50;100730.75;10330688;28;20136;-71
2022/07/11 13:51:29;;;;;;;1.20;0.82;;;;;;;26.36;41.07;100729.75;10337822;28;20141;-71
2022/07/11 13:56:31;;;;;;;1.30;0.65;;;;;;;26.42;40.91;100733.50;10338384;28;20711;-71
2022/07/11 14:01:32;;;;;;;0.68;0.63;;;;;;;26.37;40.38;100734.13;10344314;28;20168;-71
2022/07/11 14:06:36;;;;;;;1.10;0.50;;;;;;;26.12;41.45;100728.56;10351420;28;20110;-72
2022/07/11 14:11:55;;;;;;;0.55;0.50;;;;;;;26.26;40.99;100724.75;10338303;28;20049;-70
2022/07/11 14:16:57;;;;;;;1.77;0.60;;;;;;;26.27;40.29;100731.88;10335440;28;20544;-69
2022/07/11 14:21:59;;;;;;;1.88;0.55;;;;;;;26.21;40.32;100726.44;10346027;28;20625;-71
2022/07/11 14:27:01;;;;;;;0.80;0.57;;;;;;;26.25;40.53;100723.06;10352026;28;20061;-70
2022/07/11 14:32:03;;;;;;;2.20;0.80;;;;;;;26.18;41.00;100726.88;10349101;28;20448;-70
2022/07/11 14:37:05;;;;;;;0.70;0.60;;;;;;;26.13;41.13;100715.78;10364513;28;20479;-71
2022/07/11 14:42:07;;;;;;;0.93;0.50;;;;;;;25.79;41.92;100715.00;10348527;28;20068;-70
2022/07/11 14:47:29;;;;;;;2.45;0.90;;;;;;;25.74;41.56;100704.72;10342773;28;20773;-69
2022/07/11 14:52:31;;;;;;;0.95;0.80;;;;;;;25.57;42.03;100710.63;10349320;28;20082;-70
2022/07/11 14:57:32;;;;;;;0.93;0.70;;;;;;;25.58;42.20;100722.34;10345299;28;20117;-69
2022/07/11 15:13:14;;;;;;;1.70;0.70;;;;;;;25.76;41.46;100724.44;10336058;28;20712;-70
2022/07/11 15:18:15;;;;;;;1.40;0.65;;;;;;;25.69;41.42;100724.44;10350663;28;20060;-70
2022/07/11 15:23:17;;;;;;;1.48;1.00;;;;;;;25.74;41.30;100718.34;10347525;28;20053;-68
2022/07/11 15:28:18;;;;;;;1.40;0.90;;;;;;;25.72;42.31;100724.03;10347775;28;20058;-71
2022/07/11 15:33:30;;;;;;;1.02;0.93;;;;;;;25.51;42.47;100729.72;10349382;28;20420;-71
2022/07/11 15:38:31;;;;;;;1.42;1.10;;;;;;;25.50;42.61;100731.59;10349576;28;20552;-70
2022/07/11 15:43:33;;;;;;;3.10;1.00;;;;;;;25.56;42.09;100729.91;10347560;28;20055;-71
2022/07/11 15:48:34;;;;;;;2.53;1.00;;;;;;;25.71;42.31;100719.63;10345946;28;20053;-72
2022/07/11 15:53:36;;;;;;;1.33;0.60;;;;;;;25.57;41.76;100720.69;10337388;28;20172;-70
2022/07/11 15:58:37;;;;;;;1.67;0.50;;;;;;;25.53;42.50;100719.44;10328316;28;20073;-70
2022/07/11 16:03:45;;;;;;;2.55;1.05;;;;;;;25.44;42.80;100721.53;10341267;28;20535;-71
2022/07/11 16:08:46;;;;;;;1.83;0.73;;;;;;;25.48;42.35;100735.59;10347578;28;20057;-72
2022/07/11 16:13:48;;;;;;;2.42;0.65;;;;;;;25.43;43.26;100746.28;10355392;28;20148;-70
2022/07/11 16:18:51;;;;;;;2.75;1.10;;;;;;;25.27;43.41;100736.63;10343445;28;20081;-70
2022/07/11 16:23:55;;;;;;;1.23;0.60;;;;;;;25.10;43.73;100730.72;10342026;28;20049;-71
2022/07/11 16:28:56;;;;;;;1.05;0.55;;;;;;;25.06;43.75;100735.75;10340906;28;20049;-71
2022/07/11 16:33:57;;;;;;;0.98;0.65;;;;;;;25.01;43.59;100738.25;10342571;28;20056;-71
2022/07/11 16:44:20;;;;;;;1.20;0.40;;;;;;;25.11;43.86;100737.84;10354281;28;20123;-72
2022/07/11 16:49:22;;;;;;;0.85;0.50;;;;;;;25.04;43.44;100733.22;10351586;28;20128;-70
2022/07/11 16:54:23;;;;;;;1.38;0.40;;;;;;;24.98;44.19;100725.91;10329272;28;20161;-70
2022/07/11 16:59:25;;;;;;;0.88;0.20;;;;;;;25.08;44.02;100738.25;10335127;28;20118;-71
2022/07/11 17:04:27;;;;;;;0.73;0.32;;;;;;;24.91;43.77;100743.28;10357091;28;20148;-73
2022/07/11 17:09:28;;;;;;;1.17;0.30;;;;;;;24.93;44.12;100746.63;10360197;28;20041;-72
2022/07/11 17:14:30;;;;;;;1.67;0.68;;;;;;;24.90;44.36;100747.03;10356112;28;20054;-72
2022/07/11 17:19:33;;;;;;;0.65;0.30;;;;;;;24.78;44.37;100750.34;10345885;28;20049;-71
2022/07/11 17:24:35;;;;;;;2.67;1.02;;;;;;;24.67;44.52;100750.94;10344276;28;21809;-71
2022/07/11 17:29:36;;;;;;;1.67;0.40;;;;;;;24.58;44.98;100744.84;10337657;28;20820;-70
2022/07/11 17:34:38;;;;;;;1.77;0.52;;;;;;;24.38;46.62;100760.22;10353479;28;20616;-71
2022/07/11 17:39:39;;;;;;;2.63;0.47;;;;;;;24.33;45.38;100753.50;10351911;28;20136;-72
2022/07/11 17:44:41;;;;;;;0.40;0.30;;;;;;;24.16;45.32;100749.44;10351354;28;21632;-72
2022/07/11 17:49:42;;;;;;;2.80;0.22;;;;;;;24.13;45.64;100761.56;10352743;28;20125;-71
2022/07/11 17:54:44;;;;;;;0.60;0.32;;;;;;;24.01;45.60;100757.72;10355928;28;20049;-71
2022/07/11 17:59:45;;;;;;;0.52;0.20;;;;;;;23.81;45.14;100766.56;10356102;28;20171;-71
2022/07/11 18:04:47;;;;;;;1.27;0.30;;;;;;;23.70;46.38;100766.28;10349165;28;20072;-71
2022/07/11 18:09:55;;;;;;;0.80;0.30;;;;;;;23.56;47.32;100770.78;10348169;28;20074;-71
2022/07/11 18:14:57;;;;;;;1.27;0.40;;;;;;;23.38;47.42;100765.81;10349879;28;20147;-71
2022/07/11 18:20:01;;;;;;;1.13;0.35;;;;;;;23.38;47.51;100787.53;10349587;28;20762;-74
2022/07/11 18:25:04;;;;;;;0.60;0.40;;;;;;;23.33;47.82;100779.13;10338758;28;20210;-72
2022/07/11 18:30:08;;;;;;;2.05;0.40;;;;;;;23.31;47.85;100776.59;10328360;28;20069;-72
2022/07/11 18:35:17;;;;;;;1.17;0.38;;;;;;;23.24;48.07;100781.13;10348871;28;20050;-73
2022/07/11 18:45:39;;;;;;;1.15;0.40;;;;;;;23.07;48.13;100769.66;10354954;28;22019;-72
2022/07/11 18:50:41;;;;;;;1.13;0.50;;;;;;;22.95;48.66;100778.31;10350104;28;20188;-71
2022/07/11 18:55:43;;;;;;;0.70;0.55;;;;;;;22.86;48.93;100779.44;10350475;28;20058;-72
2022/07/11 19:00:44;;;;;;;0.85;0.57;;;;;;;22.84;49.30;100786.94;10349272;28;20057;-71
2022/07/11 19:05:49;;;;;;;1.10;0.57;;;;;;;22.74;49.57;100787.28;10353635;28;20159;-71
2022/07/11 19:10:50;;;;;;;2.22;0.85;;;;;;;22.68;50.28;100798.03;10344474;28;20073;-72
2022/07/11 19:15:52;;;;;;;2.08;0.80;;;;;;;22.57;50.40;100793.94;10351194;28;20138;-73
2022/07/11 19:20:53;;;;;;;1.42;0.30;;;;;;;22.47;50.64;100786.09;10352629;28;20046;-71
2022/07/11 19:25:55;;;;;;;2.20;0.80;;;;;;;22.36;51.40;100789.28;10349247;28;20049;-72
2022/07/11 19:30:56;;;;;;;1.13;0.63;;;;;;;22.30;51.56;100798.16;10341706;28;20152;-73
2022/07/11 19:35:58;;;;;;;1.42;0.65;;;;;;;22.21;51.42;100809.06;10344016;28;20083;-73
2022/07/11 19:41:00;;;;;;;1.88;0.60;;;;;;;22.11;51.79;100819.34;10340896;28;21328;-71
2022/07/11 19:46:02;;;;;;;2.60;0.75;;;;;;;22.00;52.10;100819.81;10332632;28;20050;-72
2022/07/11 19:51:03;;;;;;;2.15;0.80;;;;;;;21.99;52.06;100831.66;10341530;28;20046;-73
2022/07/11 20:01:25;;;;;;;1.70;0.55;;;;;;;21.81;53.27;100832.88;10341152;28;20124;-72
2022/07/11 20:06:27;;;;;;;0.80;0.50;;;;;;;21.74;53.24;100834.63;10336269;28;20132;-72
2022/07/11 20:11:29;;;;;;;2.92;0.60;;;;;;;21.66;52.94;100831.97;10320262;28;20052;-72
2022/07/11 20:16:30;;;;;;;2.05;0.63;;;;;;;21.58;53.80;100829.34;10339303;28;20934;-72
2022/07/11 20:21:32;;;;;;;1.20;0.80;;;;;;;21.50;54.24;100830.25;10340397;28;20057;-72
2022/07/11 20:26:34;;;;;;;1.40;0.60;;;;;;;21.41;54.70;100834.00;10344300;28;20076;-72
2022/07/11 20:31:36;;;;;;;3.17;1.48;;;;;;;21.33;55.08;100843.03;10336314;28;20132;-73
2022/07/11 20:36:37;;;;;;;1.83;1.25;;;;;;;21.28;55.06;100850.84;10347057;28;20053;-71
2022/07/11 20:41:39;;;;;;;2.38;1.05;;;;;;;21.21;55.51;100852.59;10327558;28;20680;-73
2022/07/11 20:46:40;;;;;;;1.10;0.73;;;;;;;21.14;55.59;100855.19;10337634;28;20059;-72
2022/07/11 20:51:42;;;;;;;2.53;1.00;;;;;;;21.08;55.90;100862.13;10347832;28;20588;-69
2022/07/11 20:56:43;;;;;;;0.80;0.57;;;;;;;21.00;55.90;100864.88;10330457;28;20121;-69
2022/07/11 21:01:45;;;;;;;2.05;0.95;;;;;;;20.93;56.06;100874.75;10347759;28;20050;-68
2022/07/11 21:06:46;;;;;;;0.95;0.73;;;;;;;20.86;56.01;100868.34;10355703;28;20140;-70
2022/07/11 21:11:48;;;;;;;1.17;0.82;;;;;;;20.78;56.99;100869.22;10358189;28;20125;-70
2022/07/11 21:16:49;;;;;;;1.00;0.80;;;;;;;20.77;57.13;100870.22;10342552;28;20060;-69
2022/07/11 21:21:55;;;;;;;0.82;0.70;;;;;;;20.69;57.01;100871.13;10346572;28;20193;-69
2022/07/11 21:26:57;;;;;;;2.22;0.88;;;;;;;20.65;56.87;100880.56;10352012;28;20372;-70
2022/07/11 21:31:58;;;;;;;1.30;0.85;;;;;;;20.58;57.30;100876.84;10346066;28;20248;-69
2022/07/11 21:37:00;;;;;;;0.85;0.52;;;;;;;20.55;57.26;100883.47;10348663;28;20049;-69
2022/07/11 21:42:01;;;;;;;2.15;0.68;;;;;;;20.48;57.48;100877.06;10351917;28;20064;-71
2022/07/11 21:47:03;;;;;;;0.95;0.50;;;;;;;20.42;57.89;100884.00;10351974;28;20109;-69
2022/07/11 21:52:05;;;;;;;0.63;0.43;;;;;;;20.46;57.63;100888.06;10349114;28;21474;-69
2022/07/11 21:57:06;;;;;;;0.82;0.60;;;;;;;20.43;57.90;100896.53;10342107;28;20244;-68
2022/07/11 22:02:07;;;;;;;2.83;1.20;;;;;;;20.34;58.05;100884.00;10348635;28;20046;-68
2022/07/11 22:07:09;;;;;;;1.05;0.70;;;;;;;20.35;58.01;100888.41;10347152;28;20292;-68
2022/07/11 22:12:11;;;;;;;1.10;0.52;;;;;;;20.34;58.27;100885.88;10347456;28;20196;-69
2022/07/11 22:17:12;;;;;;;0.80;0.40;;;;;;;20.33;58.58;100889.59;10351452;28;20127;-69
2022/07/11 22:22:13;;;;;;;2.60;0.95;;;;;;;20.20;58.61;100884.72;10352617;28;20069;-69
2022/07/11 22:27:15;;;;;;;2.78;0.90;;;;;;;20.18;58.78;100892.19;10343099;28;20961;-68
2022/07/11 22:32:16;;;;;;;1.33;0.43;;;;;;;20.12;59.32;100894.53;10345379;28;20465;-68
2022/07/11 22:37:18;;;;;;;0.90;0.60;;;;;;;20.12;58.72;100899.94;10360441;28;20144;-68
2022/07/11 22:42:19;;;;;;;0.90;0.43;;;;;;;20.06;59.10;100906.03;10348212;28;20145;-69
2022/07/11 22:47:21;;;;;;;1.05;0.60;;;;;;;20.05;59.48;100904.31;10344607;28;20365;-67
2022/07/11 22:52:42;;;;;;;0.75;0.50;;;;;;;20.03;59.66;100905.53;10343203;28;20056;-67
2022/07/11 22:57:51;;;;;;;1.73;0.50;;;;;;;19.98;59.57;100914.13;10341965;28;20136;-68
2022/07/11 23:02:52;;;;;;;1.80;0.40;;;;;;;19.94;59.79;100902.00;10343264;28;20101;-67
2022/07/11 23:07:54;;;;;;;0.82;0.40;;;;;;;19.91;60.00;100902.31;10347141;28;20049;-68
2022/07/11 23:12:56;;;;;;;1.17;0.60;;;;;;;19.86;59.48;100915.47;10339297;28;20057;-68
2022/07/11 23:17:58;;;;;;;0.60;0.40;;;;;;;19.71;60.55;100918.84;10345596;28;20053;-68
2022/07/11 23:23:01;;;;;;;3.25;1.85;;;;;;;19.71;61.30;100918.84;10336593;28;20056;-70
2022/07/11 23:28:02;;;;;;;2.80;0.60;;;;;;;19.59;61.79;100915.59;10337151;28;20056;-68
2022/07/11 23:33:04;;;;;;;1.88;0.70;;;;;;;19.60;61.54;100902.94;10341476;28;20188;-68
2022/07/11 23:38:05;;;;;;;0.80;0.70;;;;;;;19.55;61.77;100919.63;10341225;28;20144;-68
2022/07/11 23:43:07;;;;;;;2.35;0.60;;;;;;;19.40;62.67;100916.75;10346958;28;20049;-67
2022/07/11 23:48:09;;;;;;;1.02;0.77;;;;;;;19.48;62.35;100912.38;10344977;28;20053;-69